sensor_id;sensor_type;location;lat;lon;timestamp;P1;durP1;ratioP1;P2;durP2;ratioP2
12880;SDS011;6508;53.786;9.996;2023-04-24T00:00:16;9.32;;;6.63;;
12880;SDS011;6508;53.786;9.996;2023-04-24T00:02:44;7.32;;;6.72;;
12880;SDS011;6508;53.786;9.996;2023-04-24T00:05:14;9.68;;;6.70;;
12880;SDS011;6508;53.786;9.996;2023-04-24T00:07:45;7.22;;;6.53;;
12880;SDS011;6508;53.786;9.996;2023-04-24T00:10:13;6.72;;;6.13;;
12880;SDS011;6508;53.786;9.996;2023-04-24T00:12:41;7.35;;;6.65;;
12880;SDS011;6508;53.786;9.996;2023-04-24T00:15:09;7.90;;;7.20;;
12880;SDS011;6508;53.786;9.996;2023-04-24T00:17:38;6.63;;;5.93;;
12880;SDS011;6508;53.786;9.996;2023-04-24T00:20:06;6.60;;;6.07;;
12880;SDS011;6508;53.786;9.996;2023-04-24T00:22:36;8.05;;;7.35;;
12880;SDS011;6508;53.786;9.996;2023-04-24T00:25:06;7.53;;;6.82;;
12880;SDS011;6508;53.786;9.996;2023-04-24T00:27:34;7.50;;;6.68;;
12880;SDS011;6508;53.786;9.996;2023-04-24T00:30:03;8.57;;;7.68;;
12880;SDS011;6508;53.786;9.996;2023-04-24T00:32:32;7.53;;;6.82;;
12880;SDS011;6508;53.786;9.996;2023-04-24T00:35:00;7.35;;;6.75;;
12880;SDS011;6508;53.786;9.996;2023-04-24T00:37:28;7.15;;;6.45;;
12880;SDS011;6508;53.786;9.996;2023-04-24T00:39:55;7.05;;;6.45;;
12880;SDS011;6508;53.786;9.996;2023-04-24T00:42:25;7.43;;;6.72;;
12880;SDS011;6508;53.786;9.996;2023-04-24T00:44:52;7.15;;;6.55;;
12880;SDS011;6508;53.786;9.996;2023-04-24T00:47:20;7.15;;;6.45;;
12880;SDS011;6508;53.786;9.996;2023-04-24T00:49:49;6.88;;;6.22;;
12880;SDS011;6508;53.786;9.996;2023-04-24T00:52:18;6.90;;;6.30;;
12880;SDS011;6508;53.786;9.996;2023-04-24T00:54:47;7.95;;;6.55;;
12880;SDS011;6508;53.786;9.996;2023-04-24T00:57:15;7.28;;;6.65;;
12880;SDS011;6508;53.786;9.996;2023-04-24T00:59:45;7.43;;;6.82;;
12880;SDS011;6508;53.786;9.996;2023-04-24T01:02:13;7.05;;;6.45;;
12880;SDS011;6508;53.786;9.996;2023-04-24T01:04:42;7.72;;;6.35;;
12880;SDS011;6508;53.786;9.996;2023-04-24T01:07:11;7.80;;;7.00;;
12880;SDS011;6508;53.786;9.996;2023-04-24T01:09:40;7.40;;;6.80;;
12880;SDS011;6508;53.786;9.996;2023-04-24T01:12:09;7.88;;;7.18;;
12880;SDS011;6508;53.786;9.996;2023-04-24T01:14:37;8.98;;;7.13;;
12880;SDS011;6508;53.786;9.996;2023-04-24T01:17:06;7.85;;;7.05;;
12880;SDS011;6508;53.786;9.996;2023-04-24T01:19:35;8.40;;;7.60;;
12880;SDS011;6508;53.786;9.996;2023-04-24T01:22:08;7.53;;;6.80;;
12880;SDS011;6508;53.786;9.996;2023-04-24T01:24:38;10.48;;;6.80;;
12880;SDS011;6508;53.786;9.996;2023-04-24T01:27:06;7.70;;;7.00;;
12880;SDS011;6508;53.786;9.996;2023-04-24T01:29:34;7.47;;;6.72;;
12880;SDS011;6508;53.786;9.996;2023-04-24T01:32:03;7.78;;;7.18;;
12880;SDS011;6508;53.786;9.996;2023-04-24T01:34:31;7.78;;;6.97;;
12880;SDS011;6508;53.786;9.996;2023-04-24T01:37:00;8.13;;;7.28;;
12880;SDS011;6508;53.786;9.996;2023-04-24T01:39:29;7.78;;;7.10;;
12880;SDS011;6508;53.786;9.996;2023-04-24T01:41:57;8.10;;;7.13;;
12880;SDS011;6508;53.786;9.996;2023-04-24T01:44:25;8.10;;;7.28;;
12880;SDS011;6508;53.786;9.996;2023-04-24T01:46:54;7.70;;;7.00;;
12880;SDS011;6508;53.786;9.996;2023-04-24T01:49:23;8.60;;;7.63;;
12880;SDS011;6508;53.786;9.996;2023-04-24T01:51:50;8.80;;;7.65;;
12880;SDS011;6508;53.786;9.996;2023-04-24T01:54:18;7.30;;;6.72;;
12880;SDS011;6508;53.786;9.996;2023-04-24T01:56:47;8.77;;;7.53;;
12880;SDS011;6508;53.786;9.996;2023-04-24T01:59:16;7.35;;;6.72;;
12880;SDS011;6508;53.786;9.996;2023-04-24T02:01:44;8.68;;;7.18;;
12880;SDS011;6508;53.786;9.996;2023-04-24T02:04:12;7.85;;;7.07;;
12880;SDS011;6508;53.786;9.996;2023-04-24T02:06:41;7.68;;;7.05;;
12880;SDS011;6508;53.786;9.996;2023-04-24T02:09:09;7.45;;;6.75;;
12880;SDS011;6508;53.786;9.996;2023-04-24T02:11:37;8.18;;;6.65;;
12880;SDS011;6508;53.786;9.996;2023-04-24T02:14:06;7.50;;;6.72;;
12880;SDS011;6508;53.786;9.996;2023-04-24T02:16:34;7.32;;;6.45;;
12880;SDS011;6508;53.786;9.996;2023-04-24T02:19:02;7.85;;;7.07;;
12880;SDS011;6508;53.786;9.996;2023-04-24T02:21:30;6.75;;;6.15;;
12880;SDS011;6508;53.786;9.996;2023-04-24T02:23:59;6.88;;;6.28;;
12880;SDS011;6508;53.786;9.996;2023-04-24T02:26:27;7.03;;;6.10;;
12880;SDS011;6508;53.786;9.996;2023-04-24T02:28:55;6.55;;;5.95;;
12880;SDS011;6508;53.786;9.996;2023-04-24T02:31:24;6.15;;;5.65;;
12880;SDS011;6508;53.786;9.996;2023-04-24T02:33:52;6.72;;;6.20;;
12880;SDS011;6508;53.786;9.996;2023-04-24T02:36:20;5.53;;;5.03;;
12880;SDS011;6508;53.786;9.996;2023-04-24T02:38:48;4.80;;;4.50;;
12880;SDS011;6508;53.786;9.996;2023-04-24T02:41:16;4.70;;;4.30;;
12880;SDS011;6508;53.786;9.996;2023-04-24T02:43:44;4.15;;;3.85;;
12880;SDS011;6508;53.786;9.996;2023-04-24T02:46:12;4.80;;;4.50;;
12880;SDS011;6508;53.786;9.996;2023-04-24T02:48:41;4.32;;;4.03;;
12880;SDS011;6508;53.786;9.996;2023-04-24T02:51:09;4.53;;;4.22;;
12880;SDS011;6508;53.786;9.996;2023-04-24T02:53:36;4.43;;;4.13;;
12880;SDS011;6508;53.786;9.996;2023-04-24T02:56:04;4.30;;;3.60;;
12880;SDS011;6508;53.786;9.996;2023-04-24T02:58:32;3.97;;;3.58;;
12880;SDS011;6508;53.786;9.996;2023-04-24T03:01:00;4.07;;;3.78;;
12880;SDS011;6508;53.786;9.996;2023-04-24T03:03:28;3.75;;;3.45;;
12880;SDS011;6508;53.786;9.996;2023-04-24T03:05:58;3.17;;;2.97;;
12880;SDS011;6508;53.786;9.996;2023-04-24T03:08:26;3.30;;;3.10;;
12880;SDS011;6508;53.786;9.996;2023-04-24T03:10:54;3.15;;;2.95;;
12880;SDS011;6508;53.786;9.996;2023-04-24T03:13:21;3.38;;;3.08;;
12880;SDS011;6508;53.786;9.996;2023-04-24T03:15:49;2.58;;;2.45;;
12880;SDS011;6508;53.786;9.996;2023-04-24T03:18:17;3.47;;;3.20;;
12880;SDS011;6508;53.786;9.996;2023-04-24T03:20:47;3.10;;;2.90;;
12880;SDS011;6508;53.786;9.996;2023-04-24T03:23:16;2.90;;;2.70;;
12880;SDS011;6508;53.786;9.996;2023-04-24T03:25:44;2.83;;;2.70;;
12880;SDS011;6508;53.786;9.996;2023-04-24T03:28:12;3.03;;;2.83;;
12880;SDS011;6508;53.786;9.996;2023-04-24T03:30:48;3.88;;;3.05;;
12880;SDS011;6508;53.786;9.996;2023-04-24T03:33:17;3.28;;;3.08;;
12880;SDS011;6508;53.786;9.996;2023-04-24T03:35:56;3.05;;;2.83;;
12880;SDS011;6508;53.786;9.996;2023-04-24T03:38:25;3.28;;;2.97;;
12880;SDS011;6508;53.786;9.996;2023-04-24T03:41:13;3.15;;;2.95;;
12880;SDS011;6508;53.786;9.996;2023-04-24T03:43:45;3.47;;;3.17;;
12880;SDS011;6508;53.786;9.996;2023-04-24T03:46:14;3.20;;;2.88;;
12880;SDS011;6508;53.786;9.996;2023-04-24T03:48:51;3.60;;;3.30;;
12880;SDS011;6508;53.786;9.996;2023-04-24T03:51:23;3.40;;;3.20;;
12880;SDS011;6508;53.786;9.996;2023-04-24T03:53:56;3.95;;;3.60;;
12880;SDS011;6508;53.786;9.996;2023-04-24T03:56:27;3.10;;;2.90;;
12880;SDS011;6508;53.786;9.996;2023-04-24T03:58:54;3.38;;;3.17;;
12880;SDS011;6508;53.786;9.996;2023-04-24T04:01:23;3.40;;;3.10;;
12880;SDS011;6508;53.786;9.996;2023-04-24T04:03:59;3.60;;;3.30;;
12880;SDS011;6508;53.786;9.996;2023-04-24T04:06:29;3.20;;;3.00;;
12880;SDS011;6508;53.786;9.996;2023-04-24T04:09:00;3.33;;;3.10;;
12880;SDS011;6508;53.786;9.996;2023-04-24T04:11:29;3.22;;;3.03;;
12880;SDS011;6508;53.786;9.996;2023-04-24T04:13:57;3.30;;;3.00;;
12880;SDS011;6508;53.786;9.996;2023-04-24T04:16:26;3.33;;;3.13;;
12880;SDS011;6508;53.786;9.996;2023-04-24T04:19:00;2.63;;;2.53;;
12880;SDS011;6508;53.786;9.996;2023-04-24T04:21:29;3.17;;;2.97;;
12880;SDS011;6508;53.786;9.996;2023-04-24T04:24:11;3.33;;;3.13;;
12880;SDS011;6508;53.786;9.996;2023-04-24T04:26:43;3.53;;;2.80;;
12880;SDS011;6508;53.786;9.996;2023-04-24T04:29:21;3.20;;;3.00;;
12880;SDS011;6508;53.786;9.996;2023-04-24T04:31:50;3.25;;;2.95;;
12880;SDS011;6508;53.786;9.996;2023-04-24T04:34:20;3.00;;;2.80;;
12880;SDS011;6508;53.786;9.996;2023-04-24T04:36:49;4.18;;;3.25;;
12880;SDS011;6508;53.786;9.996;2023-04-24T04:39:32;3.40;;;3.13;;
12880;SDS011;6508;53.786;9.996;2023-04-24T04:42:04;3.47;;;3.28;;
12880;SDS011;6508;53.786;9.996;2023-04-24T04:44:38;3.38;;;3.10;;
12880;SDS011;6508;53.786;9.996;2023-04-24T04:47:10;3.13;;;2.92;;
12880;SDS011;6508;53.786;9.996;2023-04-24T04:49:39;3.67;;;3.38;;
12880;SDS011;6508;53.786;9.996;2023-04-24T04:52:15;3.25;;;2.95;;
12880;SDS011;6508;53.786;9.996;2023-04-24T04:54:48;3.50;;;3.30;;
12880;SDS011;6508;53.786;9.996;2023-04-24T04:57:16;2.40;;;2.20;;
12880;SDS011;6508;53.786;9.996;2023-04-24T04:59:44;3.83;;;2.72;;
12880;SDS011;6508;53.786;9.996;2023-04-24T05:02:20;2.97;;;2.78;;
12880;SDS011;6508;53.786;9.996;2023-04-24T05:04:49;2.78;;;2.63;;
12880;SDS011;6508;53.786;9.996;2023-04-24T05:07:17;2.97;;;2.67;;
12880;SDS011;6508;53.786;9.996;2023-04-24T05:09:51;2.80;;;2.60;;
12880;SDS011;6508;53.786;9.996;2023-04-24T05:12:19;2.67;;;2.58;;
12880;SDS011;6508;53.786;9.996;2023-04-24T05:14:51;2.45;;;2.35;;
12880;SDS011;6508;53.786;9.996;2023-04-24T05:17:19;2.35;;;2.15;;
12880;SDS011;6508;53.786;9.996;2023-04-24T05:19:47;3.10;;;2.80;;
12880;SDS011;6508;53.786;9.996;2023-04-24T05:22:15;2.50;;;2.40;;
12880;SDS011;6508;53.786;9.996;2023-04-24T05:24:49;2.55;;;2.40;;
12880;SDS011;6508;53.786;9.996;2023-04-24T05:27:32;2.70;;;2.50;;
12880;SDS011;6508;53.786;9.996;2023-04-24T05:30:01;2.30;;;2.20;;
12880;SDS011;6508;53.786;9.996;2023-04-24T05:32:30;2.20;;;2.10;;
12880;SDS011;6508;53.786;9.996;2023-04-24T05:34:59;2.53;;;2.42;;
12880;SDS011;6508;53.786;9.996;2023-04-24T05:37:26;2.22;;;2.13;;
12880;SDS011;6508;53.786;9.996;2023-04-24T05:39:56;2.90;;;2.78;;
12880;SDS011;6508;53.786;9.996;2023-04-24T05:42:24;2.42;;;2.33;;
12880;SDS011;6508;53.786;9.996;2023-04-24T05:44:53;2.80;;;2.05;;
12880;SDS011;6508;53.786;9.996;2023-04-24T05:47:23;2.22;;;2.13;;
12880;SDS011;6508;53.786;9.996;2023-04-24T05:49:53;2.45;;;2.35;;
12880;SDS011;6508;53.786;9.996;2023-04-24T05:52:21;2.60;;;2.50;;
12880;SDS011;6508;53.786;9.996;2023-04-24T05:54:50;2.60;;;2.40;;
12880;SDS011;6508;53.786;9.996;2023-04-24T05:57:23;2.40;;;2.30;;
12880;SDS011;6508;53.786;9.996;2023-04-24T05:59:56;2.70;;;2.35;;
12880;SDS011;6508;53.786;9.996;2023-04-24T06:02:25;2.20;;;2.10;;
12880;SDS011;6508;53.786;9.996;2023-04-24T06:04:54;2.22;;;2.10;;
12880;SDS011;6508;53.786;9.996;2023-04-24T06:07:23;2.40;;;2.30;;
12880;SDS011;6508;53.786;9.996;2023-04-24T06:09:52;2.40;;;2.30;;
12880;SDS011;6508;53.786;9.996;2023-04-24T06:12:21;2.40;;;2.30;;
12880;SDS011;6508;53.786;9.996;2023-04-24T06:14:56;2.20;;;2.10;;
12880;SDS011;6508;53.786;9.996;2023-04-24T06:17:34;2.30;;;2.20;;
12880;SDS011;6508;53.786;9.996;2023-04-24T06:20:02;2.28;;;2.17;;
12880;SDS011;6508;53.786;9.996;2023-04-24T06:22:32;2.80;;;2.53;;
12880;SDS011;6508;53.786;9.996;2023-04-24T06:25:00;6.63;;;2.20;;
12880;SDS011;6508;53.786;9.996;2023-04-24T06:27:28;2.30;;;2.20;;
12880;SDS011;6508;53.786;9.996;2023-04-24T06:29:57;2.22;;;2.13;;
12880;SDS011;6508;53.786;9.996;2023-04-24T06:32:26;2.15;;;2.05;;
12880;SDS011;6508;53.786;9.996;2023-04-24T06:34:54;2.35;;;2.25;;
12880;SDS011;6508;53.786;9.996;2023-04-24T06:37:24;2.30;;;2.20;;
12880;SDS011;6508;53.786;9.996;2023-04-24T06:39:53;2.30;;;2.20;;
12880;SDS011;6508;53.786;9.996;2023-04-24T06:42:21;2.33;;;2.22;;
12880;SDS011;6508;53.786;9.996;2023-04-24T06:44:51;2.40;;;2.30;;
12880;SDS011;6508;53.786;9.996;2023-04-24T06:47:20;2.40;;;2.30;;
12880;SDS011;6508;53.786;9.996;2023-04-24T06:49:48;2.53;;;2.42;;
12880;SDS011;6508;53.786;9.996;2023-04-24T06:52:19;2.17;;;2.08;;
12880;SDS011;6508;53.786;9.996;2023-04-24T06:54:47;2.50;;;2.40;;
12880;SDS011;6508;53.786;9.996;2023-04-24T06:57:14;2.55;;;2.45;;
12880;SDS011;6508;53.786;9.996;2023-04-24T06:59:43;2.33;;;2.22;;
12880;SDS011;6508;53.786;9.996;2023-04-24T07:02:11;2.22;;;2.05;;
12880;SDS011;6508;53.786;9.996;2023-04-24T07:04:40;2.30;;;2.20;;
12880;SDS011;6508;53.786;9.996;2023-04-24T07:07:08;2.33;;;2.22;;
12880;SDS011;6508;53.786;9.996;2023-04-24T07:09:40;2.20;;;2.10;;
12880;SDS011;6508;53.786;9.996;2023-04-24T07:12:09;2.25;;;2.15;;
12880;SDS011;6508;53.786;9.996;2023-04-24T07:14:37;2.42;;;2.22;;
12880;SDS011;6508;53.786;9.996;2023-04-24T07:17:05;2.28;;;2.17;;
12880;SDS011;6508;53.786;9.996;2023-04-24T07:19:33;2.08;;;2.03;;
12880;SDS011;6508;53.786;9.996;2023-04-24T07:22:03;2.42;;;2.33;;
12880;SDS011;6508;53.786;9.996;2023-04-24T07:24:31;2.63;;;2.53;;
12880;SDS011;6508;53.786;9.996;2023-04-24T07:26:59;2.38;;;2.28;;
12880;SDS011;6508;53.786;9.996;2023-04-24T07:29:27;2.60;;;2.50;;
12880;SDS011;6508;53.786;9.996;2023-04-24T07:31:55;5.70;;;2.80;;
12880;SDS011;6508;53.786;9.996;2023-04-24T07:34:23;2.90;;;2.80;;
12880;SDS011;6508;53.786;9.996;2023-04-24T07:36:51;2.58;;;2.47;;
12880;SDS011;6508;53.786;9.996;2023-04-24T07:39:20;2.72;;;2.53;;
12880;SDS011;6508;53.786;9.996;2023-04-24T07:41:48;2.45;;;2.35;;
12880;SDS011;6508;53.786;9.996;2023-04-24T07:44:17;3.08;;;2.97;;
12880;SDS011;6508;53.786;9.996;2023-04-24T07:46:45;2.90;;;2.80;;
12880;SDS011;6508;53.786;9.996;2023-04-24T07:49:13;3.40;;;3.20;;
12880;SDS011;6508;53.786;9.996;2023-04-24T07:51:44;3.50;;;3.30;;
12880;SDS011;6508;53.786;9.996;2023-04-24T07:54:12;3.72;;;3.42;;
12880;SDS011;6508;53.786;9.996;2023-04-24T07:56:43;3.55;;;3.30;;
12880;SDS011;6508;53.786;9.996;2023-04-24T07:59:11;3.78;;;3.58;;
12880;SDS011;6508;53.786;9.996;2023-04-24T08:01:39;4.82;;;3.88;;
12880;SDS011;6508;53.786;9.996;2023-04-24T08:04:06;4.28;;;4.07;;
12880;SDS011;6508;53.786;9.996;2023-04-24T08:06:34;4.15;;;3.95;;
12880;SDS011;6508;53.786;9.996;2023-04-24T08:09:03;4.20;;;4.00;;
12880;SDS011;6508;53.786;9.996;2023-04-24T08:11:31;4.35;;;4.15;;
12880;SDS011;6508;53.786;9.996;2023-04-24T08:14:00;4.10;;;3.90;;
12880;SDS011;6508;53.786;9.996;2023-04-24T08:16:29;4.25;;;3.97;;
12880;SDS011;6508;53.786;9.996;2023-04-24T08:18:57;5.05;;;4.75;;
12880;SDS011;6508;53.786;9.996;2023-04-24T08:21:25;5.30;;;5.00;;
12880;SDS011;6508;53.786;9.996;2023-04-24T08:23:53;4.80;;;4.50;;
12880;SDS011;6508;53.786;9.996;2023-04-24T08:26:21;5.05;;;4.65;;
12880;SDS011;6508;53.786;9.996;2023-04-24T08:28:49;4.78;;;4.53;;
12880;SDS011;6508;53.786;9.996;2023-04-24T08:31:18;5.00;;;4.70;;
12880;SDS011;6508;53.786;9.996;2023-04-24T08:33:47;5.30;;;5.00;;
12880;SDS011;6508;53.786;9.996;2023-04-24T08:36:15;4.97;;;4.68;;
12880;SDS011;6508;53.786;9.996;2023-04-24T08:38:43;5.38;;;5.07;;
12880;SDS011;6508;53.786;9.996;2023-04-24T08:41:12;5.32;;;5.03;;
12880;SDS011;6508;53.786;9.996;2023-04-24T08:43:41;5.80;;;5.30;;
12880;SDS011;6508;53.786;9.996;2023-04-24T08:46:09;5.30;;;5.00;;
12880;SDS011;6508;53.786;9.996;2023-04-24T08:48:40;5.55;;;5.25;;
12880;SDS011;6508;53.786;9.996;2023-04-24T08:51:08;5.70;;;5.32;;
12880;SDS011;6508;53.786;9.996;2023-04-24T08:53:37;5.20;;;4.80;;
12880;SDS011;6508;53.786;9.996;2023-04-24T08:56:05;4.82;;;4.53;;
12880;SDS011;6508;53.786;9.996;2023-04-24T08:58:33;5.50;;;5.00;;
12880;SDS011;6508;53.786;9.996;2023-04-24T09:01:00;5.38;;;4.88;;
12880;SDS011;6508;53.786;9.996;2023-04-24T09:03:29;4.25;;;3.95;;
12880;SDS011;6508;53.786;9.996;2023-04-24T09:05:59;4.82;;;4.55;;
12880;SDS011;6508;53.786;9.996;2023-04-24T09:08:28;4.50;;;4.20;;
12880;SDS011;6508;53.786;9.996;2023-04-24T09:10:56;5.10;;;4.80;;
12880;SDS011;6508;53.786;9.996;2023-04-24T09:13:25;5.00;;;4.70;;
12880;SDS011;6508;53.786;9.996;2023-04-24T09:15:53;4.57;;;4.28;;
12880;SDS011;6508;53.786;9.996;2023-04-24T09:18:24;5.30;;;4.70;;
12880;SDS011;6508;53.786;9.996;2023-04-24T09:20:59;5.35;;;5.05;;
12880;SDS011;6508;53.786;9.996;2023-04-24T09:23:28;5.30;;;4.90;;
12880;SDS011;6508;53.786;9.996;2023-04-24T09:25:57;5.68;;;5.28;;
12880;SDS011;6508;53.786;9.996;2023-04-24T09:28:27;6.13;;;5.72;;
12880;SDS011;6508;53.786;9.996;2023-04-24T09:31:04;6.53;;;6.03;;
12880;SDS011;6508;53.786;9.996;2023-04-24T09:33:34;6.15;;;5.65;;
12880;SDS011;6508;53.786;9.996;2023-04-24T09:36:03;5.88;;;5.47;;
12880;SDS011;6508;53.786;9.996;2023-04-24T09:38:32;6.95;;;6.35;;
12880;SDS011;6508;53.786;9.996;2023-04-24T09:41:01;6.55;;;5.95;;
12880;SDS011;6508;53.786;9.996;2023-04-24T09:43:30;6.45;;;6.05;;
12880;SDS011;6508;53.786;9.996;2023-04-24T09:45:58;6.30;;;5.75;;
12880;SDS011;6508;53.786;9.996;2023-04-24T09:48:30;6.60;;;6.10;;
12880;SDS011;6508;53.786;9.996;2023-04-24T09:50:59;6.38;;;5.88;;
12880;SDS011;6508;53.786;9.996;2023-04-24T09:53:29;6.40;;;5.90;;
12880;SDS011;6508;53.786;9.996;2023-04-24T09:56:02;7.00;;;6.50;;
12880;SDS011;6508;53.786;9.996;2023-04-24T09:58:30;6.85;;;6.40;;
12880;SDS011;6508;53.786;9.996;2023-04-24T10:00:58;7.20;;;6.70;;
12880;SDS011;6508;53.786;9.996;2023-04-24T10:03:26;6.93;;;6.40;;
12880;SDS011;6508;53.786;9.996;2023-04-24T10:05:58;7.03;;;6.40;;
12880;SDS011;6508;53.786;9.996;2023-04-24T10:08:26;6.97;;;6.32;;
12880;SDS011;6508;53.786;9.996;2023-04-24T10:10:55;6.05;;;5.50;;
12880;SDS011;6508;53.786;9.996;2023-04-24T10:13:23;6.80;;;6.30;;
12880;SDS011;6508;53.786;9.996;2023-04-24T10:15:51;5.88;;;5.47;;
12880;SDS011;6508;53.786;9.996;2023-04-24T10:18:19;6.40;;;6.00;;
12880;SDS011;6508;53.786;9.996;2023-04-24T10:20:48;6.10;;;5.60;;
12880;SDS011;6508;53.786;9.996;2023-04-24T10:23:16;6.38;;;5.97;;
12880;SDS011;6508;53.786;9.996;2023-04-24T10:25:46;7.15;;;6.55;;
12880;SDS011;6508;53.786;9.996;2023-04-24T10:28:15;7.00;;;6.38;;
12880;SDS011;6508;53.786;9.996;2023-04-24T10:30:43;6.88;;;6.38;;
12880;SDS011;6508;53.786;9.996;2023-04-24T10:33:11;7.47;;;6.88;;
12880;SDS011;6508;53.786;9.996;2023-04-24T10:35:40;7.10;;;6.60;;
12880;SDS011;6508;53.786;9.996;2023-04-24T10:38:11;7.90;;;7.20;;
12880;SDS011;6508;53.786;9.996;2023-04-24T10:40:41;7.43;;;6.93;;
12880;SDS011;6508;53.786;9.996;2023-04-24T10:43:09;6.97;;;6.47;;
12880;SDS011;6508;53.786;9.996;2023-04-24T10:45:39;7.05;;;6.55;;
12880;SDS011;6508;53.786;9.996;2023-04-24T10:48:08;8.10;;;7.40;;
12880;SDS011;6508;53.786;9.996;2023-04-24T10:50:43;7.57;;;6.88;;
12880;SDS011;6508;53.786;9.996;2023-04-24T10:53:13;7.53;;;6.93;;
12880;SDS011;6508;53.786;9.996;2023-04-24T10:55:43;8.18;;;7.47;;
12880;SDS011;6508;53.786;9.996;2023-04-24T10:58:13;9.15;;;8.43;;
12880;SDS011;6508;53.786;9.996;2023-04-24T11:00:48;7.80;;;7.20;;
12880;SDS011;6508;53.786;9.996;2023-04-24T11:03:24;8.23;;;7.60;;
12880;SDS011;6508;53.786;9.996;2023-04-24T11:05:55;8.82;;;7.93;;
12880;SDS011;6508;53.786;9.996;2023-04-24T11:08:25;8.95;;;8.15;;
12880;SDS011;6508;53.786;9.996;2023-04-24T11:10:55;9.60;;;8.70;;
12880;SDS011;6508;53.786;9.996;2023-04-24T11:13:24;10.57;;;8.70;;
12880;SDS011;6508;53.786;9.996;2023-04-24T11:18:41;9.25;;;8.48;;
12880;SDS011;6508;53.786;9.996;2023-04-24T11:21:12;13.38;;;9.40;;
12880;SDS011;6508;53.786;9.996;2023-04-24T11:23:40;10.02;;;8.85;;
12880;SDS011;6508;53.786;9.996;2023-04-24T11:26:11;10.27;;;9.20;;
12880;SDS011;6508;53.786;9.996;2023-04-24T11:28:44;9.80;;;8.90;;
12880;SDS011;6508;53.786;9.996;2023-04-24T11:34:06;9.73;;;8.73;;
12880;SDS011;6508;53.786;9.996;2023-04-24T11:36:35;9.93;;;9.00;;
12880;SDS011;6508;53.786;9.996;2023-04-24T11:39:02;10.60;;;9.52;;
12880;SDS011;6508;53.786;9.996;2023-04-24T11:41:31;10.82;;;9.43;;
12880;SDS011;6508;53.786;9.996;2023-04-24T11:43:59;13.00;;;10.38;;
12880;SDS011;6508;53.786;9.996;2023-04-24T11:46:28;12.35;;;9.35;;
12880;SDS011;6508;53.786;9.996;2023-04-24T11:48:59;11.65;;;10.45;;
12880;SDS011;6508;53.786;9.996;2023-04-24T11:51:27;10.80;;;9.70;;
12880;SDS011;6508;53.786;9.996;2023-04-24T11:54:07;10.68;;;9.57;;
12880;SDS011;6508;53.786;9.996;2023-04-24T11:56:36;10.57;;;9.50;;
12880;SDS011;6508;53.786;9.996;2023-04-24T11:59:05;10.40;;;9.40;;
12880;SDS011;6508;53.786;9.996;2023-04-24T12:01:42;10.63;;;9.48;;
12880;SDS011;6508;53.786;9.996;2023-04-24T12:04:12;9.70;;;8.90;;
12880;SDS011;6508;53.786;9.996;2023-04-24T12:06:40;11.20;;;9.93;;
12880;SDS011;6508;53.786;9.996;2023-04-24T12:09:08;10.27;;;9.13;;
12880;SDS011;6508;53.786;9.996;2023-04-24T12:11:52;10.05;;;9.07;;
12880;SDS011;6508;53.786;9.996;2023-04-24T12:14:20;10.70;;;8.82;;
12880;SDS011;6508;53.786;9.996;2023-04-24T12:16:48;9.43;;;8.50;;
12880;SDS011;6508;53.786;9.996;2023-04-24T12:19:20;9.65;;;8.75;;
12880;SDS011;6508;53.786;9.996;2023-04-24T12:21:58;10.55;;;9.13;;
12880;SDS011;6508;53.786;9.996;2023-04-24T12:24:26;11.32;;;9.00;;
12880;SDS011;6508;53.786;9.996;2023-04-24T12:26:55;9.40;;;8.60;;
12880;SDS011;6508;53.786;9.996;2023-04-24T12:29:23;8.80;;;8.00;;
12880;SDS011;6508;53.786;9.996;2023-04-24T12:31:51;8.32;;;7.55;;
12880;SDS011;6508;53.786;9.996;2023-04-24T12:34:20;7.53;;;6.90;;
12880;SDS011;6508;53.786;9.996;2023-04-24T12:36:50;7.70;;;6.88;;
12880;SDS011;6508;53.786;9.996;2023-04-24T12:39:18;7.38;;;6.78;;
12880;SDS011;6508;53.786;9.996;2023-04-24T12:41:56;7.88;;;7.28;;
12880;SDS011;6508;53.786;9.996;2023-04-24T12:44:30;7.45;;;6.75;;
12880;SDS011;6508;53.786;9.996;2023-04-24T12:47:00;7.43;;;6.75;;
12880;SDS011;6508;53.786;9.996;2023-04-24T12:49:30;7.55;;;6.95;;
12880;SDS011;6508;53.786;9.996;2023-04-24T12:51:59;6.13;;;5.63;;
12880;SDS011;6508;53.786;9.996;2023-04-24T12:54:31;7.53;;;6.82;;
12880;SDS011;6508;53.786;9.996;2023-04-24T12:57:00;6.93;;;6.50;;
12880;SDS011;6508;53.786;9.996;2023-04-24T12:59:28;7.43;;;6.75;;
12880;SDS011;6508;53.786;9.996;2023-04-24T13:01:55;7.30;;;6.80;;
12880;SDS011;6508;53.786;9.996;2023-04-24T13:04:23;7.20;;;6.60;;
12880;SDS011;6508;53.786;9.996;2023-04-24T13:06:53;7.82;;;7.10;;
12880;SDS011;6508;53.786;9.996;2023-04-24T13:09:21;7.60;;;6.90;;
12880;SDS011;6508;53.786;9.996;2023-04-24T13:11:50;8.30;;;7.50;;
12880;SDS011;6508;53.786;9.996;2023-04-24T13:14:17;7.57;;;6.97;;
12880;SDS011;6508;53.786;9.996;2023-04-24T13:16:45;7.82;;;7.22;;
12880;SDS011;6508;53.786;9.996;2023-04-24T13:19:13;6.88;;;6.38;;
12880;SDS011;6508;53.786;9.996;2023-04-24T13:21:42;7.45;;;6.80;;
12880;SDS011;6508;53.786;9.996;2023-04-24T13:24:11;7.22;;;6.63;;
12880;SDS011;6508;53.786;9.996;2023-04-24T13:26:39;7.15;;;6.65;;
12880;SDS011;6508;53.786;9.996;2023-04-24T13:29:06;7.05;;;6.55;;
12880;SDS011;6508;53.786;9.996;2023-04-24T13:31:34;7.20;;;6.68;;
12880;SDS011;6508;53.786;9.996;2023-04-24T13:34:03;7.57;;;7.07;;
12880;SDS011;6508;53.786;9.996;2023-04-24T13:36:31;6.95;;;6.55;;
12880;SDS011;6508;53.786;9.996;2023-04-24T13:38:59;7.85;;;7.32;;
12880;SDS011;6508;53.786;9.996;2023-04-24T13:41:28;8.32;;;7.50;;
12880;SDS011;6508;53.786;9.996;2023-04-24T13:43:56;7.43;;;6.85;;
12880;SDS011;6508;53.786;9.996;2023-04-24T13:46:24;7.57;;;6.75;;
12880;SDS011;6508;53.786;9.996;2023-04-24T13:48:52;7.28;;;6.68;;
12880;SDS011;6508;53.786;9.996;2023-04-24T13:51:19;6.90;;;6.32;;
12880;SDS011;6508;53.786;9.996;2023-04-24T13:53:47;7.18;;;6.55;;
12880;SDS011;6508;53.786;9.996;2023-04-24T13:56:15;7.85;;;7.15;;
12880;SDS011;6508;53.786;9.996;2023-04-24T13:58:44;8.00;;;7.20;;
12880;SDS011;6508;53.786;9.996;2023-04-24T14:01:12;8.88;;;8.07;;
12880;SDS011;6508;53.786;9.996;2023-04-24T14:03:41;8.73;;;8.02;;
12880;SDS011;6508;53.786;9.996;2023-04-24T14:06:10;8.90;;;8.10;;
12880;SDS011;6508;53.786;9.996;2023-04-24T14:08:38;8.90;;;8.00;;
12880;SDS011;6508;53.786;9.996;2023-04-24T14:11:06;8.43;;;7.70;;
12880;SDS011;6508;53.786;9.996;2023-04-24T14:13:34;10.85;;;8.32;;
12880;SDS011;6508;53.786;9.996;2023-04-24T14:16:04;8.40;;;7.60;;
12880;SDS011;6508;53.786;9.996;2023-04-24T14:18:33;9.23;;;8.32;;
12880;SDS011;6508;53.786;9.996;2023-04-24T14:21:02;8.50;;;7.68;;
12880;SDS011;6508;53.786;9.996;2023-04-24T14:23:30;8.63;;;7.82;;
12880;SDS011;6508;53.786;9.996;2023-04-24T14:25:58;8.88;;;8.15;;
12880;SDS011;6508;53.786;9.996;2023-04-24T14:28:26;7.97;;;7.38;;
12880;SDS011;6508;53.786;9.996;2023-04-24T14:30:54;8.63;;;7.88;;
12880;SDS011;6508;53.786;9.996;2023-04-24T14:33:23;8.65;;;7.80;;
12880;SDS011;6508;53.786;9.996;2023-04-24T14:35:51;9.32;;;8.50;;
12880;SDS011;6508;53.786;9.996;2023-04-24T14:38:19;8.38;;;7.65;;
12880;SDS011;6508;53.786;9.996;2023-04-24T14:40:47;8.40;;;7.70;;
12880;SDS011;6508;53.786;9.996;2023-04-24T14:43:18;8.05;;;7.45;;
12880;SDS011;6508;53.786;9.996;2023-04-24T14:45:46;9.23;;;8.30;;
12880;SDS011;6508;53.786;9.996;2023-04-24T14:48:14;7.78;;;7.15;;
12880;SDS011;6508;53.786;9.996;2023-04-24T14:50:44;8.35;;;7.65;;
12880;SDS011;6508;53.786;9.996;2023-04-24T14:53:12;6.90;;;6.30;;
12880;SDS011;6508;53.786;9.996;2023-04-24T14:55:39;6.90;;;6.40;;
12880;SDS011;6508;53.786;9.996;2023-04-24T14:58:07;5.85;;;5.43;;
12880;SDS011;6508;53.786;9.996;2023-04-24T15:00:35;5.45;;;4.90;;
12880;SDS011;6508;53.786;9.996;2023-04-24T15:03:04;5.00;;;4.60;;
12880;SDS011;6508;53.786;9.996;2023-04-24T15:05:32;5.40;;;5.05;;
12880;SDS011;6508;53.786;9.996;2023-04-24T15:08:02;5.10;;;4.80;;
12880;SDS011;6508;53.786;9.996;2023-04-24T15:10:30;4.78;;;4.47;;
12880;SDS011;6508;53.786;9.996;2023-04-24T15:12:58;3.63;;;3.42;;
12880;SDS011;6508;53.786;9.996;2023-04-24T15:15:26;4.30;;;3.97;;
12880;SDS011;6508;53.786;9.996;2023-04-24T15:17:54;4.55;;;4.15;;